Time;durP1;ratioP1;P1;durP2;ratioP2;P2;SDS_P1;SDS_P2;PMS_P1;PMS_P2;Temp;Humidity;BMP_temperature;BMP_pressure;BME280_temperature;BME280_humidity;BME280_pressure;Samples;Min_cycle;Max_cycle;Signal;HPM_P1;HPM_P2
2023/05/11 00:00:47;;;;;;;3.83;3.17;;;22.10;90.90;;;;;;4987805;28;20515;-78
2023/05/11 00:03:13;;;;;;;5.27;3.73;;;22.10;90.90;;;;;;4986761;28;20468;-80
2023/05/11 00:05:41;;;;;;;7.03;3.23;;;22.10;90.90;;;;;;4981582;28;20831;-79
2023/05/11 00:08:08;;;;;;;4.33;3.40;;;22.10;90.90;;;;;;4986128;28;20527;-79
2023/05/11 00:10:34;;;;;;;3.60;3.30;;;22.10;90.90;;;;;;4990156;28;21014;-79
2023/05/11 00:13:01;;;;;;;4.37;3.07;;;22.10;90.90;;;;;;4986450;28;20543;-79
2023/05/11 00:15:29;;;;;;;3.07;2.87;;;22.10;90.90;;;;;;4988446;28;20491;-81
2023/05/11 00:17:56;;;;;;;2.97;2.77;;;22.10;90.80;;;;;;4992037;28;20467;-80
2023/05/11 00:20:22;;;;;;;3.37;3.07;;;22.10;90.80;;;;;;4989195;28;20464;-77
2023/05/11 00:22:49;;;;;;;4.37;4.00;;;22.10;90.80;;;;;;4989535;28;20457;-79
2023/05/11 00:25:16;;;;;;;4.30;3.10;;;22.10;90.80;;;;;;4989993;28;20459;-79
2023/05/11 00:27:44;;;;;;;3.60;3.30;;;22.00;90.70;;;;;;4993238;28;20475;-79
2023/05/11 00:30:13;;;;;;;3.13;2.80;;;22.00;90.70;;;;;;4992104;28;20465;-79
2023/05/11 00:32:41;;;;;;;4.03;3.50;;;22.10;90.80;;;;;;4997242;28;21029;-79
2023/05/11 00:35:09;;;;;;;4.93;3.37;;;22.00;90.70;;;;;;4988560;28;20449;-79
2023/05/11 00:37:36;;;;;;;5.17;3.53;;;22.00;90.70;;;;;;4988652;28;21037;-79
2023/05/11 00:40:03;;;;;;;3.50;3.20;;;22.00;90.70;;;;;;4991260;28;20453;-79
2023/05/11 00:42:29;;;;;;;4.25;3.15;;;22.00;90.70;;;;;;4990452;28;20464;-79
2023/05/11 00:44:57;;;;;;;3.80;3.07;;;22.00;90.60;;;;;;4994889;28;20201;-80
2023/05/11 00:47:23;;;;;;;4.30;3.27;;;22.00;90.60;;;;;;4986679;28;20498;-79
2023/05/11 00:49:53;;;;;;;3.30;3.00;;;22.00;90.60;;;;;;4982581;28;20456;-79
2023/05/11 00:52:21;;;;;;;5.60;2.97;;;22.00;90.60;;;;;;4989811;28;20587;-79
2023/05/11 00:54:48;;;;;;;3.23;3.03;;;22.00;90.60;;;;;;4988493;28;20467;-78
2023/05/11 00:57:14;;;;;;;3.53;3.03;;;22.00;90.60;;;;;;4992127;28;20832;-78
2023/05/11 00:59:41;;;;;;;3.08;2.88;;;22.00;90.60;;;;;;4988485;28;20452;-79
2023/05/11 01:02:08;;;;;;;3.67;3.37;;;22.00;90.60;;;;;;4994742;28;20233;-78
2023/05/11 01:04:35;;;;;;;5.40;3.80;;;22.00;90.60;;;;;;4994042;28;20460;-78
2023/05/11 01:07:12;;;;;;;3.60;2.40;;;22.00;90.60;;;;;;4993114;28;20449;-79
2023/05/11 01:09:50;;;;;;;3.80;3.50;;;22.00;90.60;;;;;;4994718;28;20980;-79
2023/05/11 01:12:25;;;;;;;4.00;3.60;;;22.00;90.60;;;;;;4995173;28;20487;-79
2023/05/11 01:14:58;;;;;;;3.20;2.63;;;22.00;90.60;;;;;;4985357;28;20687;-76
2023/05/11 01:17:32;;;;;;;3.13;2.60;;;22.00;90.60;;;;;;4992316;28;20821;-80
2023/05/11 01:20:07;;;;;;;2.80;2.60;;;21.90;90.50;;;;;;4988813;28;20455;-77
2023/05/11 01:22:48;;;;;;;3.07;2.77;;;21.90;90.50;;;;;;4982276;28;20855;-79
2023/05/11 01:25:27;;;;;;;2.70;2.50;;;21.90;90.50;;;;;;4984688;28;20460;-79
2023/05/11 01:28:15;;;;;;;5.60;3.30;;;21.90;90.50;;;;;;4984166;28;20827;-78
2023/05/11 01:30:50;;;;;;;2.97;2.77;;;21.90;90.50;;;;;;4993491;28;20471;-79
2023/05/11 01:33:22;;;;;;;2.87;2.57;;;21.90;90.50;;;;;;4986561;28;20465;-78
2023/05/11 01:35:53;;;;;;;4.17;2.63;;;21.90;90.50;;;;;;4986032;28;20460;-79
2023/05/11 01:38:23;;;;;;;2.97;2.57;;;21.90;90.50;;;;;;4987767;28;20535;-78
2023/05/11 01:40:54;;;;;;;2.63;2.30;;;21.90;90.50;;;;;;4993850;28;20979;-79
2023/05/11 01:43:23;;;;;;;3.43;3.07;;;21.90;90.50;;;;;;4991446;28;20472;-80
2023/05/11 01:45:53;;;;;;;4.63;3.10;;;21.90;90.50;;;;;;4983128;28;20558;-79
2023/05/11 01:48:25;;;;;;;3.00;2.67;;;21.90;90.40;;;;;;4994358;28;20561;-79
2023/05/11 01:50:52;;;;;;;3.17;2.90;;;21.90;90.40;;;;;;4990886;28;20449;-80
2023/05/11 01:53:21;;;;;;;3.10;2.80;;;21.90;90.50;;;;;;4981501;28;20465;-78
2023/05/11 01:55:49;;;;;;;4.23;3.17;;;21.90;90.50;;;;;;4992014;28;20464;-80
2023/05/11 01:58:17;;;;;;;2.97;2.67;;;21.90;90.50;;;;;;4991819;28;20465;-79
2023/05/11 02:00:45;;;;;;;4.27;2.40;;;21.90;90.40;;;;;;4980139;28;21069;-79
2023/05/11 02:03:15;;;;;;;3.57;3.27;;;21.90;90.40;;;;;;4996911;28;20469;-80
2023/05/11 02:05:44;;;;;;;2.90;2.70;;;21.80;90.40;;;;;;4987103;28;20475;-80
2023/05/11 02:08:12;;;;;;;3.10;2.80;;;21.90;90.40;;;;;;4991312;28;20936;-77
2023/05/11 02:10:41;;;;;;;3.35;3.00;;;21.90;90.40;;;;;;4987807;28;20463;-80
2023/05/11 02:13:09;;;;;;;2.73;2.40;;;21.80;90.40;;;;;;4988359;28;20249;-79
2023/05/11 02:15:40;;;;;;;3.40;3.10;;;21.80;90.40;;;;;;4986418;28;20464;-79
2023/05/11 02:18:07;;;;;;;3.78;3.20;;;21.80;90.40;;;;;;4992970;28;20483;-78
2023/05/11 02:20:37;;;;;;;3.70;3.10;;;21.80;90.40;;;;;;4985260;28;20198;-78
2023/05/11 02:23:05;;;;;;;2.50;2.30;;;21.80;90.40;;;;;;4981225;28;20459;-79
2023/05/11 02:25:32;;;;;;;4.20;3.23;;;21.80;90.40;;;;;;4988728;28;20810;-78
2023/05/11 02:27:58;;;;;;;3.10;2.57;;;21.80;90.30;;;;;;4993963;28;20864;-79
2023/05/11 02:30:27;;;;;;;3.90;2.10;;;21.80;90.30;;;;;;4982523;28;20470;-80
2023/05/11 02:32:56;;;;;;;3.07;2.83;;;21.80;90.40;;;;;;4987937;28;20481;-79
2023/05/11 02:35:28;;;;;;;2.63;2.33;;;21.80;90.30;;;;;;4987289;28;20983;-78
2023/05/11 02:38:00;;;;;;;2.80;2.40;;;21.80;90.30;;;;;;4986104;28;20494;-78
2023/05/11 02:40:30;;;;;;;3.80;2.70;;;21.80;90.40;;;;;;4990587;28;21018;-80
2023/05/11 02:43:01;;;;;;;2.83;2.60;;;21.80;90.40;;;;;;4988719;28;20448;-79
2023/05/11 02:45:31;;;;;;;2.80;2.47;;;21.80;90.30;;;;;;4991210;28;20838;-79
2023/05/11 02:48:00;;;;;;;3.00;2.67;;;21.80;90.40;;;;;;4992913;28;20198;-78
2023/05/11 02:50:30;;;;;;;2.37;2.17;;;21.80;90.40;;;;;;4987441;28;20458;-78
2023/05/11 02:53:02;;;;;;;3.22;3.03;;;21.70;90.30;;;;;;4991858;28;20480;-79
2023/05/11 02:55:30;;;;;;;3.13;2.60;;;21.80;90.30;;;;;;4990601;28;20207;-79
2023/05/11 02:57:57;;;;;;;3.33;3.03;;;21.70;90.30;;;;;;4992541;28;20981;-77
2023/05/11 03:00:24;;;;;;;3.93;3.00;;;21.70;90.30;;;;;;4979241;28;20470;-77
2023/05/11 03:02:51;;;;;;;3.43;3.13;;;21.70;90.30;;;;;;4988070;28;20453;-79
2023/05/11 03:05:18;;;;;;;2.73;2.53;;;21.70;90.30;;;;;;4987956;28;20457;-79
2023/05/11 03:07:44;;;;;;;3.53;3.23;;;21.70;90.30;;;;;;4984701;28;20468;-78
2023/05/11 03:10:12;;;;;;;3.40;2.60;;;21.70;90.30;;;;;;4977766;28;20690;-79
2023/05/11 03:12:39;;;;;;;2.47;2.27;;;21.70;90.30;;;;;;4980750;28;21004;-78
2023/05/11 03:15:10;;;;;;;2.50;2.30;;;21.70;90.30;;;;;;4987491;28;20818;-80
2023/05/11 03:17:37;;;;;;;4.47;2.80;;;21.70;90.30;;;;;;4995184;28;20950;-77
2023/05/11 03:20:06;;;;;;;3.00;2.77;;;21.70;90.30;;;;;;4990421;28;20969;-79
2023/05/11 03:22:34;;;;;;;3.60;2.20;;;21.70;90.40;;;;;;4986878;28;20456;-78
2023/05/11 03:25:03;;;;;;;3.23;2.93;;;21.70;90.30;;;;;;4984089;28;20457;-79
2023/05/11 03:27:33;;;;;;;2.37;2.17;;;21.70;90.30;;;;;;4982918;28;21914;-79
2023/05/11 03:30:02;;;;;;;2.40;2.20;;;21.70;90.30;;;;;;4988695;28;20479;-78
2023/05/11 03:32:29;;;;;;;2.60;2.40;;;21.70;90.30;;;;;;4983748;28;20480;-78
2023/05/11 03:34:56;;;;;;;5.70;2.57;;;21.70;90.30;;;;;;4985103;28;20460;-78
2023/05/11 03:37:23;;;;;;;2.80;2.50;;;21.60;90.20;;;;;;4987593;28;21034;-79
2023/05/11 03:39:54;;;;;;;6.50;2.60;;;21.70;90.30;;;;;;4991531;28;20197;-79
2023/05/11 03:42:22;;;;;;;2.40;2.20;;;21.70;90.20;;;;;;4986817;28;20467;-78
2023/05/11 03:44:54;;;;;;;3.23;2.87;;;21.70;90.20;;;;;;4987978;28;20465;-80
2023/05/11 03:47:22;;;;;;;2.70;2.50;;;21.70;90.20;;;;;;4991535;28;20453;-77
2023/05/11 03:49:50;;;;;;;4.77;3.37;;;21.60;90.30;;;;;;4996711;28;20511;-76
2023/05/11 03:52:17;;;;;;;2.40;2.10;;;21.60;90.40;;;;;;4993483;28;20483;-77
2023/05/11 03:54:44;;;;;;;4.27;3.37;;;21.60;90.50;;;;;;4987515;28;20467;-77
2023/05/11 03:57:11;;;;;;;3.33;2.70;;;21.60;90.50;;;;;;4999102;28;20460;-77
2023/05/11 03:59:39;;;;;;;2.70;2.50;;;21.60;90.50;;;;;;4988970;28;20466;-79
2023/05/11 04:02:08;;;;;;;2.67;2.47;;;21.60;90.50;;;;;;4991267;28;20465;-79
2023/05/11 04:04:34;;;;;;;2.63;2.43;;;21.60;90.40;;;;;;4995382;28;20828;-79
2023/05/11 04:07:01;;;;;;;3.03;2.20;;;21.60;90.40;;;;;;4991222;28;20551;-79
2023/05/11 04:09:28;;;;;;;3.07;2.40;;;21.60;90.40;;;;;;4998059;28;20455;-78
2023/05/11 04:11:54;;;;;;;2.60;2.27;;;21.60;90.40;;;;;;4988491;28;20472;-79
2023/05/11 04:14:21;;;;;;;4.77;2.77;;;21.60;90.30;;;;;;4994677;28;20479;-78
2023/05/11 04:16:48;;;;;;;2.47;2.27;;;21.60;90.70;;;;;;4980965;28;20461;-79
2023/05/11 04:19:16;;;;;;;3.20;3.00;;;21.60;90.30;;;;;;4994365;28;20967;-79
2023/05/11 04:21:42;;;;;;;2.33;2.13;;;21.60;90.40;;;;;;4984335;28;20751;-79
2023/05/11 04:24:09;;;;;;;3.00;2.40;;;21.60;90.30;;;;;;4997417;28;20449;-78
2023/05/11 04:26:36;;;;;;;3.37;2.37;;;21.60;90.30;;;;;;4988046;28;20201;-79
2023/05/11 04:29:03;;;;;;;3.60;3.37;;;21.60;90.30;;;;;;4987635;28;20459;-78
2023/05/11 04:31:30;;;;;;;3.28;2.60;;;21.60;90.30;;;;;;4981124;28;20526;-79
2023/05/11 04:33:57;;;;;;;2.40;2.20;;;21.50;90.30;;;;;;4984840;28;20224;-79
2023/05/11 04:36:25;;;;;;;3.63;2.67;;;21.60;90.30;;;;;;4992506;28;20504;-79
2023/05/11 04:38:52;;;;;;;2.70;2.50;;;21.60;90.30;;;;;;4989023;28;20999;-79
2023/05/11 04:41:19;;;;;;;2.77;2.43;;;21.50;90.30;;;;;;4990135;28;20463;-78
2023/05/11 04:43:46;;;;;;;3.17;2.40;;;21.50;90.30;;;;;;4990000;28;20468;-80
2023/05/11 04:46:12;;;;;;;2.80;2.60;;;21.50;90.30;;;;;;4981277;28;20473;-79
2023/05/11 04:48:42;;;;;;;2.57;2.37;;;21.50;90.60;;;;;;4994999;28;20664;-79
2023/05/11 04:51:09;;;;;;;3.72;3.35;;;21.50;90.20;;;;;;4986788;28;20452;-79
2023/05/11 04:53:37;;;;;;;2.40;2.20;;;21.50;90.20;;;;;;4989817;28;20308;-78
2023/05/11 04:56:05;;;;;;;3.30;2.80;;;21.50;90.60;;;;;;4989468;28;20452;-78
2023/05/11 04:58:31;;;;;;;2.57;2.37;;;21.50;90.30;;;;;;4983855;28;20456;-79
2023/05/11 05:00:58;;;;;;;2.87;2.60;;;21.50;90.20;;;;;;4976816;28;20464;-79
2023/05/11 05:03:25;;;;;;;4.23;2.77;;;21.50;90.20;;;;;;4984228;28;20483;-78
2023/05/11 05:05:51;;;;;;;3.13;2.40;;;21.50;90.20;;;;;;4990747;28;20460;-79
2023/05/11 05:08:19;;;;;;;2.73;2.53;;;21.50;90.20;;;;;;4982036;28;20198;-81
2023/05/11 05:10:47;;;;;;;2.00;1.83;;;21.50;90.30;;;;;;4990646;28;20578;-79
2023/05/11 05:13:15;;;;;;;2.50;2.30;;;21.40;90.10;;;;;;4985430;28;20493;-79
2023/05/11 05:15:42;;;;;;;2.20;2.00;;;21.50;90.30;;;;;;4982919;28;20463;-78
2023/05/11 05:18:08;;;;;;;3.03;2.73;;;21.50;90.30;;;;;;4991329;28;20193;-81
2023/05/11 05:20:35;;;;;;;3.57;2.73;;;21.40;90.30;;;;;;4989847;28;20453;-79
2023/05/11 05:23:02;;;;;;;2.70;2.50;;;21.50;90.40;;;;;;4993452;28;20460;-79
2023/05/11 05:25:29;;;;;;;2.60;2.42;;;21.50;90.30;;;;;;4986592;28;20648;-80
2023/05/11 05:27:57;;;;;;;2.63;2.40;;;21.50;90.30;;;;;;4990626;28;20198;-80
2023/05/11 05:30:24;;;;;;;2.90;2.40;;;21.50;90.30;;;;;;4983672;28;20460;-79
2023/05/11 05:32:50;;;;;;;2.90;2.70;;;21.60;90.40;;;;;;4990808;28;20224;-79
2023/05/11 05:35:17;;;;;;;2.30;2.10;;;21.60;90.50;;;;;;4990293;28;20463;-81
2023/05/11 05:37:44;;;;;;;2.55;2.33;;;21.60;90.50;;;;;;4988412;28;20496;-78
2023/05/11 05:40:11;;;;;;;2.30;2.10;;;21.60;90.50;;;;;;4993201;28;20205;-78
2023/05/11 05:42:38;;;;;;;2.87;2.67;;;21.60;90.50;;;;;;4993756;28;20461;-79
2023/05/11 05:45:07;;;;;;;2.50;2.30;;;21.60;90.50;;;;;;4989638;28;20450;-78
2023/05/11 05:47:34;;;;;;;3.50;2.30;;;21.70;90.60;;;;;;4992706;28;20958;-78
2023/05/11 05:50:00;;;;;;;2.40;2.20;;;21.70;90.60;;;;;;4991276;28;20464;-79
2023/05/11 05:52:27;;;;;;;3.07;2.77;;;21.60;90.60;;;;;;4990452;28;20999;-80
2023/05/11 05:54:54;;;;;;;3.20;2.50;;;21.70;90.60;;;;;;4989700;28;20457;-78
2023/05/11 05:57:21;;;;;;;2.70;2.50;;;21.70;90.70;;;;;;4991123;28;20461;-77
2023/05/11 05:59:47;;;;;;;2.50;2.30;;;21.70;90.70;;;;;;4985890;28;20831;-80
2023/05/11 06:02:16;;;;;;;2.50;2.30;;;21.70;90.70;;;;;;4983778;28;20448;-80
2023/05/11 06:04:42;;;;;;;2.53;2.33;;;21.70;90.70;;;;;;4987882;28;20559;-79
2023/05/11 06:07:09;;;;;;;2.50;2.30;;;21.70;90.70;;;;;;4989868;28;20468;-79
2023/05/11 06:09:36;;;;;;;2.93;2.73;;;21.70;90.60;;;;;;4987965;28;20475;-78
2023/05/11 06:12:09;;;;;;;3.00;2.80;;;21.80;90.70;;;;;;4988162;28;20469;-78
2023/05/11 06:14:36;;;;;;;3.17;2.43;;;21.80;90.70;;;;;;4988487;28;20496;-80
2023/05/11 06:17:03;;;;;;;2.70;2.23;;;21.80;90.70;;;;;;4986521;28;20451;-76
2023/05/11 06:19:31;;;;;;;2.60;2.40;;;21.80;90.70;;;;;;4986663;28;20467;-78
2023/05/11 06:21:58;;;;;;;2.27;2.07;;;21.80;90.70;;;;;;4988244;28;20465;-80
2023/05/11 06:24:24;;;;;;;2.70;2.50;;;21.90;90.70;;;;;;4982425;28;20459;-81
2023/05/11 06:26:51;;;;;;;2.90;2.60;;;21.80;90.60;;;;;;4987506;28;20468;-80
2023/05/11 06:29:21;;;;;;;3.27;2.90;;;21.90;90.70;;;;;;4988193;28;20472;-80
2023/05/11 06:31:51;;;;;;;4.27;3.63;;;21.90;90.60;;;;;;4986435;28;20462;-78
2023/05/11 06:34:18;;;;;;;2.77;2.57;;;21.90;90.60;;;;;;4988387;28;20481;-79
2023/05/11 06:36:46;;;;;;;2.70;2.50;;;21.90;90.60;;;;;;4988825;28;21209;-78
2023/05/11 06:39:13;;;;;;;3.00;2.70;;;21.90;90.60;;;;;;4984839;28;20448;-78
2023/05/11 06:41:39;;;;;;;3.00;2.80;;;21.90;90.80;;;;;;4989236;28;20979;-78
2023/05/11 06:44:07;;;;;;;5.07;3.10;;;21.90;90.80;;;;;;4992453;28;20905;-79
2023/05/11 06:46:33;;;;;;;3.27;2.97;;;22.00;90.80;;;;;;4982540;28;20497;-81
2023/05/11 06:49:00;;;;;;;5.00;2.77;;;22.00;90.90;;;;;;4983378;28;20914;-81
2023/05/11 06:51:27;;;;;;;3.23;3.03;;;22.00;91.00;;;;;;5002481;28;20499;-81
2023/05/11 06:53:55;;;;;;;3.10;2.90;;;22.00;90.90;;;;;;4989989;28;20497;-81
2023/05/11 06:56:22;;;;;;;3.40;3.20;;;22.00;91.10;;;;;;4987773;28;20470;-82
2023/05/11 06:58:49;;;;;;;3.57;3.27;;;22.10;91.10;;;;;;4986970;28;20467;-82
2023/05/11 07:01:15;;;;;;;3.67;3.33;;;22.10;91.10;;;;;;4982240;28;20461;-81
2023/05/11 07:03:42;;;;;;;3.50;3.20;;;22.10;91.10;;;;;;4988090;28;20492;-81
2023/05/11 07:06:09;;;;;;;4.60;4.20;;;22.10;91.10;;;;;;4989836;28;20457;-81
2023/05/11 07:08:37;;;;;;;3.50;3.20;;;22.10;91.00;;;;;;4994207;28;20453;-83
2023/05/11 07:11:05;;;;;;;3.70;3.40;;;22.10;91.00;;;;;;4978753;28;20464;-84
2023/05/11 07:13:32;;;;;;;3.90;3.50;;;22.10;91.00;;;;;;4989296;28;20485;-84
2023/05/11 07:15:59;;;;;;;4.23;3.90;;;22.10;91.30;;;;;;4983845;28;20459;-83
2023/05/11 07:18:25;;;;;;;5.27;4.77;;;22.10;90.90;;;;;;4996503;28;20460;-83
2023/05/11 07:20:52;;;;;;;5.40;5.00;;;22.10;90.90;;;;;;4996578;28;20543;-84
2023/05/11 07:23:19;;;;;;;4.83;4.40;;;22.10;90.90;;;;;;4993506;28;20451;-82
2023/05/11 07:25:45;;;;;;;5.83;5.20;;;22.10;90.90;;;;;;4987342;28;20461;-83
2023/05/11 07:28:13;;;;;;;6.03;5.47;;;22.10;91.00;;;;;;4987344;28;20559;-84
2023/05/11 07:30:40;;;;;;;6.10;5.37;;;22.10;90.90;;;;;;4984502;28;20553;-82
2023/05/11 07:33:07;;;;;;;4.43;4.03;;;22.10;90.90;;;;;;4992930;28;20484;-85
2023/05/11 07:35:33;;;;;;;7.73;5.80;;;22.10;90.90;;;;;;4994508;28;20470;-85
2023/05/11 07:38:00;;;;;;;6.27;5.07;;;22.10;91.00;;;;;;4991287;28;21014;-85
2023/05/11 07:40:27;;;;;;;7.67;5.30;;;22.20;91.00;;;;;;4985584;28;20956;-85
2023/05/11 07:42:53;;;;;;;5.83;5.33;;;22.10;91.00;;;;;;4991059;28;20901;-85
2023/05/11 07:45:21;;;;;;;6.43;4.90;;;22.20;91.10;;;;;;4995810;28;20464;-82
2023/05/11 07:47:48;;;;;;;5.90;4.63;;;22.20;91.10;;;;;;4989037;28;20461;-82
2023/05/11 07:50:15;;;;;;;5.33;4.20;;;22.20;91.10;;;;;;4990572;28;20473;-83
2023/05/11 07:52:42;;;;;;;4.50;4.10;;;22.20;91.10;;;;;;4996064;28;20456;-83
2023/05/11 07:55:09;;;;;;;3.97;3.60;;;22.20;91.10;;;;;;4975783;28;20465;-83
2023/05/11 07:57:35;;;;;;;4.23;3.93;;;22.20;90.90;;;;;;4992331;28;20463;-83
2023/05/11 08:00:04;;;;;;;4.03;3.70;;;22.20;90.80;;;;;;4996252;28;20473;-83
2023/05/11 08:02:32;;;;;;;5.80;3.63;;;22.20;90.70;;;;;;4991613;28;20464;-83
2023/05/11 08:04:59;;;;;;;4.40;4.00;;;22.20;90.70;;;;;;4984164;28;20456;-83
2023/05/11 08:07:26;;;;;;;3.80;3.50;;;22.20;90.60;;;;;;4991082;28;20453;-83
2023/05/11 08:09:52;;;;;;;4.07;3.67;;;22.20;90.60;;;;;;4992976;28;20452;-83
2023/05/11 08:12:19;;;;;;;3.53;3.20;;;22.20;90.50;;;;;;4995940;28;20448;-83
2023/05/11 08:14:46;;;;;;;3.73;3.47;;;22.20;90.40;;;;;;4993708;28;20484;-84
2023/05/11 08:17:12;;;;;;;3.93;3.63;;;22.20;90.40;;;;;;4993241;28;21043;-83
2023/05/11 08:19:40;;;;;;;3.53;3.23;;;22.20;90.30;;;;;;4991627;28;20452;-82
2023/05/11 08:22:07;;;;;;;3.77;3.47;;;22.20;90.30;;;;;;4997869;28;20490;-81
2023/05/11 08:24:34;;;;;;;5.93;3.17;;;22.20;90.60;;;;;;4985996;28;20459;-84
2023/05/11 08:27:01;;;;;;;4.00;3.70;;;22.30;90.60;;;;;;4998681;28;20473;-83
2023/05/11 08:29:28;;;;;;;5.30;4.10;;;22.30;90.50;;;;;;4988739;28;20532;-83
2023/05/11 08:31:54;;;;;;;3.67;3.37;;;22.30;90.60;;;;;;4999769;28;20547;-85
2023/05/11 08:34:22;;;;;;;3.90;3.60;;;22.20;90.50;;;;;;4986063;28;21038;-84
2023/05/11 08:36:50;;;;;;;3.67;3.37;;;22.30;90.50;;;;;;4990512;28;21057;-85
2023/05/11 08:39:17;;;;;;;3.97;3.67;;;22.30;90.40;;;;;;4997770;28;20463;-85
2023/05/11 08:41:45;;;;;;;3.30;3.03;;;22.30;90.40;;;;;;4990662;28;20465;-82
2023/05/11 08:44:15;;;;;;;3.90;3.60;;;22.20;90.30;;;;;;4987805;28;20832;-84
2023/05/11 08:46:45;;;;;;;4.27;3.87;;;22.20;90.40;;;;;;4969085;28;20460;-80
2023/05/11 08:49:13;;;;;;;6.17;3.53;;;22.30;90.40;;;;;;4964763;28;20535;-85
2023/05/11 08:51:40;;;;;;;3.50;3.20;;;22.30;90.50;;;;;;4972421;28;20556;-83
2023/05/11 08:54:08;;;;;;;3.67;3.30;;;22.30;90.60;;;;;;4980147;28;20919;-82
2023/05/11 08:56:37;;;;;;;3.17;2.57;;;22.30;90.60;;;;;;4986500;28;20462;-84
2023/05/11 08:59:05;;;;;;;9.53;3.53;;;22.30;90.70;;;;;;4995932;28;20728;-83
2023/05/11 09:01:34;;;;;;;2.70;2.50;;;22.40;90.70;;;;;;4976468;28;20465;-83
2023/05/11 09:04:01;;;;;;;3.23;2.73;;;22.40;90.90;;;;;;4987555;28;20804;-81
2023/05/11 09:06:29;;;;;;;3.70;3.40;;;22.40;91.00;;;;;;4993537;28;20464;-80
2023/05/11 09:08:56;;;;;;;4.27;2.90;;;22.40;90.90;;;;;;4982635;28;20958;-82
2023/05/11 09:11:24;;;;;;;3.20;2.90;;;22.40;90.90;;;;;;4989700;28;20456;-81
2023/05/11 09:13:51;;;;;;;3.47;3.20;;;22.50;90.90;;;;;;4992030;28;20674;-80
2023/05/11 09:16:18;;;;;;;3.43;3.13;;;22.50;90.90;;;;;;4982169;28;20460;-81
2023/05/11 09:18:48;;;;;;;5.60;3.00;;;22.50;90.90;;;;;;4992013;28;20457;-78
2023/05/11 09:21:15;;;;;;;2.60;2.40;;;22.50;90.90;;;;;;4986722;28;20551;-80
2023/05/11 09:23:42;;;;;;;2.87;2.60;;;22.50;90.90;;;;;;4990971;28;20459;-81
2023/05/11 09:26:14;;;;;;;2.87;2.63;;;22.60;91.30;;;;;;4986622;28;20461;-81
2023/05/11 09:28:51;;;;;;;4.23;3.03;;;22.50;90.80;;;;;;4988437;28;20468;-80
2023/05/11 09:31:36;;;;;;;3.10;2.90;;;22.60;90.90;;;;;;4983748;28;20469;-84
2023/05/11 09:34:16;;;;;;;3.50;3.20;;;22.60;90.80;;;;;;4983953;28;20486;-81
2023/05/11 09:36:43;;;;;;;2.67;2.47;;;22.60;90.80;;;;;;4991911;28;20491;-81
2023/05/11 09:39:11;;;;;;;3.87;2.67;;;22.60;90.80;;;;;;4987633;28;20492;-82
2023/05/11 09:41:37;;;;;;;2.73;2.50;;;22.60;90.80;;;;;;4986962;28;20885;-81
2023/05/11 09:44:08;;;;;;;3.00;2.00;;;22.70;91.20;;;;;;4993338;28;20958;-79
2023/05/11 09:46:36;;;;;;;3.07;2.87;;;22.70;90.70;;;;;;4984364;28;20557;-80
2023/05/11 09:49:03;;;;;;;3.13;2.50;;;22.70;90.70;;;;;;4993064;28;20976;-81
2023/05/11 09:51:31;;;;;;;2.33;2.13;;;22.70;90.70;;;;;;4988913;28;20556;-82
2023/05/11 09:53:58;;;;;;;3.60;2.80;;;22.70;90.70;;;;;;4991991;28;20567;-81
2023/05/11 09:56:43;;;;;;;2.90;2.70;;;22.80;90.70;;;;;;4994404;28;20550;-80
2023/05/11 09:59:12;;;;;;;3.60;2.57;;;22.80;90.60;;;;;;4990018;28;20931;-81
2023/05/11 10:01:38;;;;;;;2.60;2.40;;;22.80;91.00;;;;;;4986161;28;20456;-82
2023/05/11 10:04:07;;;;;;;2.60;2.40;;;22.80;90.60;;;;;;4988418;28;20457;-78
2023/05/11 10:06:51;;;;;;;2.57;2.37;;;22.80;90.60;;;;;;4981698;28;20484;-80
2023/05/11 10:09:23;;;;;;;2.87;2.67;;;22.80;90.50;;;;;;4997795;28;20967;-80
2023/05/11 10:11:51;;;;;;;2.53;2.30;;;22.80;90.50;;;;;;4989463;28;20544;-81
2023/05/11 10:14:20;;;;;;;2.97;2.57;;;22.90;90.60;;;;;;4991615;28;20493;-81
2023/05/11 10:16:47;;;;;;;3.17;2.87;;;22.90;90.50;;;;;;4988341;28;20469;-83
2023/05/11 10:19:15;;;;;;;2.30;2.10;;;22.90;90.50;;;;;;4992670;28;20460;-82
2023/05/11 10:21:43;;;;;;;3.97;2.47;;;22.90;90.40;;;;;;4985667;28;20470;-81
2023/05/11 10:24:11;;;;;;;2.70;2.50;;;22.90;90.50;;;;;;4989676;28;20511;-81
2023/05/11 10:26:38;;;;;;;2.70;2.50;;;23.00;90.50;;;;;;4989843;28;20456;-82
2023/05/11 10:29:05;;;;;;;3.00;2.43;;;23.00;90.40;;;;;;4978606;28;20453;-81
2023/05/11 10:31:35;;;;;;;2.03;1.93;;;23.00;90.40;;;;;;4982384;28;20461;-81
2023/05/11 10:34:03;;;;;;;2.30;2.10;;;23.00;90.40;;;;;;4988593;28;20484;-82
2023/05/11 10:36:30;;;;;;;2.00;1.90;;;23.00;90.30;;;;;;4989189;28;21069;-81
2023/05/11 10:38:57;;;;;;;1.90;1.70;;;23.00;90.30;;;;;;4988544;28;20458;-79
2023/05/11 10:41:39;;;;;;;2.33;1.77;;;23.00;90.30;;;;;;4992573;28;20471;-80
2023/05/11 10:44:35;;;;;;;2.77;2.57;;;23.00;90.30;;;;;;4980683;28;20461;-84
2023/05/11 10:47:18;;;;;;;2.63;2.40;;;23.00;90.00;;;;;;4989064;28;20465;-85
2023/05/11 10:50:03;;;;;;;3.50;2.27;;;23.10;90.20;;;;;;4984309;28;20452;-85
2023/05/11 10:52:50;;;;;;;2.70;2.50;;;23.10;90.20;;;;;;4989146;28;20455;-85
2023/05/11 10:55:30;;;;;;;2.70;2.50;;;23.00;90.00;;;;;;4984558;28;20484;-86
2023/05/11 10:58:07;;;;;;;4.63;2.27;;;23.10;90.10;;;;;;4981886;28;20555;-80
2023/05/11 11:01:19;;;;;;;2.43;2.23;;;23.10;90.10;;;;;;4981475;28;20975;-82
2023/05/11 11:03:58;;;;;;;4.27;2.30;;;23.10;90.00;;;;;;4987836;28;21052;-83
2023/05/11 11:06:28;;;;;;;3.73;3.33;;;23.10;90.00;;;;;;4985089;28;20893;-80
2023/05/11 11:08:57;;;;;;;2.70;2.50;;;23.10;90.00;;;;;;4984566;28;20460;-81
2023/05/11 11:11:32;;;;;;;2.70;2.50;;;23.00;89.90;;;;;;4991432;28;20987;-80
2023/05/11 11:14:01;;;;;;;3.27;2.77;;;23.10;90.00;;;;;;4983682;28;20492;-81
2023/05/11 11:16:28;;;;;;;2.53;2.33;;;23.00;89.80;;;;;;4985475;28;20476;-81
2023/05/11 11:19:37;;;;;;;4.73;2.47;;;23.00;89.70;;;;;;4987405;28;20493;-80
2023/05/11 11:22:06;;;;;;;3.47;2.93;;;23.00;89.70;;;;;;4954428;28;20809;-81
2023/05/11 11:24:46;;;;;;;2.70;2.50;;;23.00;89.60;;;;;;4989604;28;20580;-80
2023/05/11 11:27:14;;;;;;;2.90;2.70;;;23.00;89.50;;;;;;4987821;28;20449;-81
2023/05/11 11:29:41;;;;;;;2.93;2.63;;;23.00;89.40;;;;;;4989159;28;20460;-82
2023/05/11 11:32:27;;;;;;;4.63;2.73;;;23.00;89.60;;;;;;4990601;28;20459;-80
2023/05/11 11:34:54;;;;;;;2.73;2.53;;;23.00;89.40;;;;;;4987050;28;20477;-82
2023/05/11 11:37:22;;;;;;;2.30;2.10;;;22.90;89.40;;;;;;4989781;28;20534;-83
2023/05/11 11:39:59;;;;;;;2.90;2.70;;;22.90;89.30;;;;;;4981997;28;20468;-82
2023/05/11 11:42:40;;;;;;;2.07;1.97;;;22.90;89.50;;;;;;4992087;28;20460;-85
2023/05/11 11:45:27;;;;;;;2.70;2.50;;;22.90;89.60;;;;;;4984366;28;20778;-82
2023/05/11 11:48:08;;;;;;;2.50;2.30;;;23.00;89.70;;;;;;4985003;28;20461;-82
2023/05/11 11:50:35;;;;;;;2.43;2.23;;;23.00;89.70;;;;;;4991089;28;20475;-83
2023/05/11 11:53:03;;;;;;;2.20;2.00;;;23.00;89.90;;;;;;4985960;28;20851;-84
2023/05/11 11:55:54;;;;;;;4.13;2.93;;;23.00;89.80;;;;;;4985889;28;20578;-82
2023/05/11 11:58:57;;;;;;;2.07;1.87;;;23.00;89.80;;;;;;4965608;28;20991;-80
2023/05/11 12:01:27;;;;;;;2.23;2.03;;;23.10;90.00;;;;;;4993581;28;20809;-80
2023/05/11 12:04:10;;;;;;;2.37;2.17;;;23.10;90.00;;;;;;4989338;28;20441;-81
2023/05/11 12:06:38;;;;;;;1.83;1.70;;;23.10;90.00;;;;;;4988396;28;20445;-79
2023/05/11 12:09:06;;;;;;;2.60;2.30;;;23.10;90.00;;;;;;4992676;28;20465;-80
2023/05/11 12:11:34;;;;;;;2.70;2.50;;;23.10;90.00;;;;;;4989490;28;20967;-79
2023/05/11 12:14:03;;;;;;;2.70;2.50;;;23.10;90.00;;;;;;4989241;28;20465;-81
2023/05/11 12:16:31;;;;;;;2.30;2.10;;;23.10;90.00;;;;;;4991366;28;20464;-81
2023/05/11 12:18:59;;;;;;;2.83;2.63;;;23.10;90.00;;;;;;4988182;28;20546;-81
2023/05/11 12:21:28;;;;;;;2.57;2.37;;;23.20;90.00;;;;;;4986170;28;20468;-80
2023/05/11 12:23:56;;;;;;;2.90;2.70;;;23.10;90.00;;;;;;4990613;28;20555;-80
2023/05/11 12:26:26;;;;;;;1.90;1.77;;;23.10;89.80;;;;;;4991988;28;20444;-81
2023/05/11 12:29:06;;;;;;;2.60;2.40;;;23.20;89.90;;;;;;4989419;28;20915;-81
2023/05/11 12:31:35;;;;;;;2.97;2.77;;;23.20;89.90;;;;;;4988213;28;20502;-81
2023/05/11 12:34:02;;;;;;;2.10;1.93;;;23.20;89.90;;;;;;4989779;28;20464;-82
2023/05/11 12:36:30;;;;;;;2.10;1.90;;;23.20;90.20;;;;;;4990685;28;20464;-81
2023/05/11 12:38:57;;;;;;;2.13;1.93;;;23.20;89.70;;;;;;4988517;28;20467;-81
2023/05/11 12:41:26;;;;;;;2.00;1.80;;;23.20;89.70;;;;;;4992305;28;20962;-82
2023/05/11 12:43:54;;;;;;;2.43;1.80;;;23.30;89.80;;;;;;4989965;28;20456;-80
2023/05/11 12:46:21;;;;;;;2.87;2.60;;;23.20;89.70;;;;;;4989420;28;20532;-81
2023/05/11 12:48:50;;;;;;;2.30;2.10;;;23.30;89.70;;;;;;4988281;28;20464;-79
2023/05/11 12:51:47;;;;;;;2.10;1.93;;;23.30;89.70;;;;;;4989319;28;20455;-80
2023/05/11 12:54:27;;;;;;;1.60;1.50;;;23.30;89.50;;;;;;4989055;28;20463;-80
2023/05/11 12:56:55;;;;;;;1.60;1.50;;;23.30;89.40;;;;;;4985912;28;20456;-80
2023/05/11 12:59:31;;;;;;;2.97;2.77;;;23.30;89.50;;;;;;4993154;28;20458;-80